KCRG

Jacksonville Executive at Craig Airport

Jacksonville, Florida, USA
KCRG 212123Z 2121/2218 25012G18KT P6SM BKN100 OVC200 FM220000 25007KT P6SM BKN100
Issued Valid From Valid To
Jul-21 @ 21:23 UTC
(2 hours ago)
Jul-21 @ 21:00 UTC
(2 hours ago)
Jul-22 @ 18:00 UTC
(in 19 hours)
Jul-21 @ 21:00 to Jul-22 @ 00:00
KCRG 212123Z 2121/2218 25012G18KT P6SM BKN100 OVC200
Wind Visibility Clouds
250° at 12 knots
 Gusting to 18 knots
Greater than 6 miles
  • Broken at 10,000' AGL
  • Overcast at 20,000' AGL
From Jul-22 @ 00:00 to Jul-22 @ 18:00
FM220000 25007KT P6SM BKN100
Wind Visibility Clouds
250° at 7 knots Greater than 6 miles
  • Broken at 10,000' AGL
KCRG 212123Z 2121/2218 25012G18KT P6SM BKN100 OVC200 FM220000 25007KT P6SM BKN100
Issued Jul-21 @ 21:23 UTC
(2 hours ago)
Valid From Jul-21 @ 21:00 UTC
(2 hours ago)
Valid To Jul-22 @ 18:00 UTC
(in 19 hours)
Jul-21 @ 21:00 - Jul-22 @ 00:00
Wind Visibility
250° at 12 knots
 Gusting to 18 knots
Greater than 6 miles
Clouds
  • Broken at 10,000' AGL
  • Overcast at 20,000' AGL
From Jul-22 @ 00:00 - Jul-22 @ 18:00
Wind Visibility
250° at 7 knots Greater than 6 miles
Clouds
  • Broken at 10,000' AGL